CFG7EP EDDF-LPMA
Flight info
| Callsign | CFG7EP |
|---|---|
| Flight time | N/A |
| Altitude | 35000 |
| Route | SOBRA2L SOBRA Y180 DIK UN857 TOLVU DCT RAPOR/N0445F370 DCT GIMER/N0432F350 DCT ESTOC UT300 PON UN872 GODIX/N0409F310 UN872 DIDAK/N0445F370 UN872 ERIGA UN741 AZFIC DCT LOTEE DCT AGADO DCT LIDRO |
| Aircraft | A20N/M-SDE2E3FGHIRWXY/LB1 |
Departure
| Time | 2026-05-05 13:04 |
|---|---|
| Airport | Frankfurt Main Airport (EDDF) |
Arrival
| Time | N/A |
|---|---|
| Airport | Cristiano Ronaldo International Airport (LPMA) |
| Time | Latitude | Longitude | Altitude | Speed | Heading |
|---|---|---|---|---|---|
| 2026-05-05 12:41 | 50.04889 | 8.57445 | 355 ft | 0 kts | 220° |
| 2026-05-05 12:56 | 50.04900 | 8.57458 | 355 ft | 2 kts | 220° |
| 2026-05-05 12:56 | 50.04907 | 8.57468 | 355 ft | 2 kts | 215° |
| 2026-05-05 12:56 | 50.04921 | 8.57477 | 355 ft | 2 kts | 189° |
| 2026-05-05 12:57 | 50.04936 | 8.57477 | 355 ft | 2 kts | 167° |
| 2026-05-05 12:57 | 50.04950 | 8.57469 | 355 ft | 2 kts | 146° |
| 2026-05-05 12:57 | 50.04961 | 8.57452 | 355 ft | 2 kts | 124° |
| 2026-05-05 12:57 | 50.04965 | 8.57442 | 355 ft | 0 kts | 112° |
| 2026-05-05 12:58 | 50.04959 | 8.57463 | 355 ft | 3 kts | 114° |
| 2026-05-05 12:58 | 50.04948 | 8.57500 | 355 ft | 2 kts | 114° |
| 2026-05-05 12:58 | 50.04946 | 8.57508 | 355 ft | 0 kts | 114° |
| 2026-05-05 13:00 | 50.04945 | 8.57510 | 355 ft | 1 kts | 114° |
| 2026-05-05 13:00 | 50.04939 | 8.57531 | 355 ft | 2 kts | 116° |
| 2026-05-05 13:01 | 50.04900 | 8.57655 | 355 ft | 5 kts | 116° |
| 2026-05-05 13:01 | 50.04878 | 8.57732 | 355 ft | 8 kts | 113° |
| 2026-05-05 13:01 | 50.04858 | 8.57807 | 355 ft | 6 kts | 113° |
| 2026-05-05 13:01 | 50.04832 | 8.57870 | 355 ft | 8 kts | 139° |
| 2026-05-05 13:02 | 50.04763 | 8.57928 | 355 ft | 13 kts | 151° |
| 2026-05-05 13:02 | 50.04666 | 8.57986 | 355 ft | 17 kts | 160° |
| 2026-05-05 13:02 | 50.04538 | 8.58058 | 355 ft | 20 kts | 161° |
| 2026-05-05 13:02 | 50.04420 | 8.58106 | 355 ft | 15 kts | 192° |
| 2026-05-05 13:03 | 50.04348 | 8.57989 | 355 ft | 21 kts | 250° |
| 2026-05-05 13:03 | 50.04212 | 8.57424 | 355 ft | 88 kts | 250° |
| 2026-05-05 13:03 | 50.03923 | 8.56227 | 355 ft | 145 kts | 250° |
| 2026-05-05 13:03 | 50.03535 | 8.54555 | 520 ft | 175 kts | 250° |
| 2026-05-05 13:04 | 50.03170 | 8.52715 | 1005 ft | 182 kts | 256° |
| 2026-05-05 13:04 | 50.02725 | 8.50884 | 1607 ft | 186 kts | 238° |
| 2026-05-05 13:04 | 50.01863 | 8.49451 | 2287 ft | 184 kts | 218° |
| 2026-05-05 13:04 | 50.00705 | 8.48480 | 2748 ft | 198 kts | 200° |
| 2026-05-05 13:05 | 49.99282 | 8.48099 | 3121 ft | 217 kts | 187° |
| 2026-05-05 13:05 | 49.97719 | 8.47702 | 3455 ft | 237 kts | 198° |
| 2026-05-05 13:05 | 49.96158 | 8.46744 | 3973 ft | 249 kts | 217° |
| 2026-05-05 13:05 | 49.95098 | 8.44600 | 4489 ft | 260 kts | 252° |
| 2026-05-05 13:06 | 49.94736 | 8.41851 | 5229 ft | 265 kts | 262° |
| 2026-05-05 13:06 | 49.94500 | 8.39025 | 5932 ft | 270 kts | 261° |
| 2026-05-05 13:06 | 49.94224 | 8.36142 | 6673 ft | 274 kts | 260° |
| 2026-05-05 13:06 | 49.93901 | 8.33232 | 7424 ft | 277 kts | 258° |
| 2026-05-05 13:07 | 49.93538 | 8.30279 | 8153 ft | 280 kts | 257° |
| 2026-05-05 13:07 | 49.93156 | 8.27341 | 8846 ft | 283 kts | 256° |
| 2026-05-05 13:07 | 49.92747 | 8.24320 | 9538 ft | 286 kts | 256° |
| 2026-05-05 13:07 | 49.92332 | 8.21316 | 10227 ft | 291 kts | 256° |
| 2026-05-05 13:08 | 49.91892 | 8.18160 | 10637 ft | 306 kts | 256° |
| 2026-05-05 13:08 | 49.91430 | 8.14873 | 10978 ft | 320 kts | 256° |
| 2026-05-05 13:08 | 49.90953 | 8.11485 | 11583 ft | 325 kts | 256° |
| 2026-05-05 13:08 | 49.90465 | 8.08036 | 12305 ft | 327 kts | 256° |
| 2026-05-05 13:09 | 49.89980 | 8.04608 | 12947 ft | 330 kts | 255° |
| 2026-05-05 13:09 | 49.89477 | 8.01134 | 13561 ft | 333 kts | 255° |
| 2026-05-05 13:09 | 49.88960 | 7.97617 | 14179 ft | 337 kts | 255° |
| 2026-05-05 13:09 | 49.88449 | 7.94095 | 14761 ft | 341 kts | 255° |
| 2026-05-05 13:10 | 49.87930 | 7.90501 | 15349 ft | 344 kts | 255° |
| 2026-05-05 13:10 | 49.87406 | 7.86857 | 15926 ft | 347 kts | 255° |
| 2026-05-05 13:10 | 49.86886 | 7.83240 | 16497 ft | 350 kts | 256° |
| 2026-05-05 13:10 | 49.86458 | 7.79540 | 17041 ft | 355 kts | 263° |
| 2026-05-05 13:11 | 49.86458 | 7.75698 | 17538 ft | 360 kts | 274° |
| 2026-05-05 13:11 | 49.86911 | 7.71858 | 18055 ft | 365 kts | 281° |
| 2026-05-05 13:11 | 49.87513 | 7.68032 | 18520 ft | 369 kts | 282° |
| 2026-05-05 13:11 | 49.88127 | 7.64190 | 19014 ft | 372 kts | 282° |
| 2026-05-05 13:12 | 49.88749 | 7.60272 | 19526 ft | 374 kts | 282° |
| 2026-05-05 13:12 | 49.89365 | 7.56347 | 20023 ft | 376 kts | 281° |
| 2026-05-05 13:12 | 49.89981 | 7.52366 | 20506 ft | 379 kts | 281° |
| 2026-05-05 13:12 | 49.90593 | 7.48394 | 20969 ft | 382 kts | 281° |
| 2026-05-05 13:13 | 49.91202 | 7.44426 | 21457 ft | 384 kts | 281° |
| 2026-05-05 13:13 | 49.91827 | 7.40346 | 21943 ft | 387 kts | 281° |
| 2026-05-05 13:13 | 49.92443 | 7.36307 | 22416 ft | 390 kts | 281° |
| 2026-05-05 13:13 | 49.93066 | 7.32196 | 22903 ft | 392 kts | 280° |
| 2026-05-05 13:14 | 49.93687 | 7.28095 | 23384 ft | 394 kts | 280° |
| 2026-05-05 13:14 | 49.94304 | 7.24000 | 23840 ft | 397 kts | 280° |
| 2026-05-05 13:14 | 49.94935 | 7.19804 | 24293 ft | 399 kts | 280° |
| 2026-05-05 13:14 | 49.95563 | 7.15628 | 24737 ft | 402 kts | 280° |
| 2026-05-05 13:15 | 49.96195 | 7.11406 | 25165 ft | 405 kts | 280° |
| 2026-05-05 13:15 | 49.96835 | 7.07122 | 25589 ft | 407 kts | 279° |
| 2026-05-05 13:15 | 49.97471 | 7.02851 | 25999 ft | 410 kts | 280° |
| 2026-05-05 13:15 | 49.98114 | 6.98516 | 26403 ft | 412 kts | 280° |
| 2026-05-05 13:16 | 49.98712 | 6.94210 | 26771 ft | 414 kts | 276° |
| 2026-05-05 13:16 | 49.99078 | 6.89756 | 27150 ft | 414 kts | 270° |
| 2026-05-05 13:16 | 49.99159 | 6.85314 | 27497 ft | 414 kts | 265° |
| 2026-05-05 13:16 | 49.99052 | 6.80855 | 27841 ft | 416 kts | 264° |
| 2026-05-05 13:17 | 49.98909 | 6.76368 | 28172 ft | 418 kts | 264° |
| 2026-05-05 13:17 | 49.98764 | 6.71867 | 28494 ft | 420 kts | 264° |
| 2026-05-05 13:17 | 49.98621 | 6.67330 | 28812 ft | 422 kts | 264° |
| 2026-05-05 13:17 | 49.98459 | 6.62774 | 29121 ft | 423 kts | 262° |
| 2026-05-05 13:18 | 49.98064 | 6.58267 | 29414 ft | 422 kts | 256° |
| 2026-05-05 13:18 | 49.97380 | 6.53838 | 29711 ft | 421 kts | 250° |
| 2026-05-05 13:18 | 49.96420 | 6.49565 | 29994 ft | 420 kts | 245° |
| 2026-05-05 13:18 | 49.95285 | 6.45411 | 30240 ft | 421 kts | 244° |
| 2026-05-05 13:19 | 49.94100 | 6.41221 | 30503 ft | 423 kts | 243° |
| 2026-05-05 13:19 | 49.92926 | 6.37075 | 30824 ft | 422 kts | 244° |
| 2026-05-05 13:19 | 49.91756 | 6.32926 | 31188 ft | 421 kts | 243° |
| 2026-05-05 13:19 | 49.90596 | 6.28789 | 31527 ft | 419 kts | 243° |
| 2026-05-05 13:20 | 49.89413 | 6.24681 | 31838 ft | 418 kts | 242° |
| 2026-05-05 13:20 | 49.88254 | 6.20571 | 32159 ft | 417 kts | 242° |
| 2026-05-05 13:20 | 49.87024 | 6.16508 | 32461 ft | 414 kts | 239° |
| 2026-05-05 13:20 | 49.85666 | 6.12609 | 32755 ft | 411 kts | 236° |
| 2026-05-05 13:21 | 49.84161 | 6.08824 | 33042 ft | 409 kts | 233° |
| 2026-05-05 13:21 | 49.82574 | 6.05272 | 33275 ft | 408 kts | 231° |
| 2026-05-05 13:21 | 49.80929 | 6.01695 | 33464 ft | 409 kts | 231° |
| 2026-05-05 13:21 | 49.79279 | 5.98108 | 33648 ft | 410 kts | 231° |
| 2026-05-05 13:22 | 49.77634 | 5.94503 | 33852 ft | 411 kts | 232° |
| 2026-05-05 13:22 | 49.76097 | 5.90819 | 34045 ft | 412 kts | 235° |
| 2026-05-05 13:22 | 49.74672 | 5.86944 | 34235 ft | 414 kts | 238° |
| 2026-05-05 13:22 | 49.73407 | 5.82996 | 34426 ft | 416 kts | 242° |
| 2026-05-05 13:23 | 49.72276 | 5.78889 | 34612 ft | 418 kts | 245° |
| 2026-05-05 13:23 | 49.71267 | 5.74641 | 34785 ft | 419 kts | 246° |
| 2026-05-05 13:23 | 49.69304 | 5.66167 | 34814 ft | 421 kts | 246° |
| 2026-05-05 13:24 | 49.67329 | 5.57683 | 34826 ft | 424 kts | 246° |
| 2026-05-05 13:24 | 49.66335 | 5.53428 | 35005 ft | 423 kts | 246° |
| 2026-05-05 13:24 | 49.65343 | 5.49192 | 35260 ft | 418 kts | 246° |
| 2026-05-05 13:25 | 49.64354 | 5.44978 | 35428 ft | 416 kts | 246° |
| 2026-05-05 13:25 | 49.63364 | 5.40779 | 35529 ft | 416 kts | 246° |
| 2026-05-05 13:25 | 49.61456 | 5.32372 | 35712 ft | 418 kts | 248° |
| 2026-05-05 13:26 | 49.60571 | 5.28151 | 35814 ft | 417 kts | 248° |
| 2026-05-05 13:26 | 49.59678 | 5.23904 | 35904 ft | 417 kts | 248° |
| 2026-05-05 13:26 | 49.58066 | 5.15289 | 36064 ft | 419 kts | 251° |
| 2026-05-05 13:27 | 49.57305 | 5.10977 | 36479 ft | 419 kts | 251° |
| 2026-05-05 13:27 | 49.56549 | 5.06709 | 36597 ft | 419 kts | 251° |
| 2026-05-05 13:27 | 49.55780 | 5.02369 | 36724 ft | 418 kts | 251° |
| 2026-05-05 13:27 | 49.55016 | 4.98078 | 36799 ft | 419 kts | 251° |
| 2026-05-05 13:28 | 49.53462 | 4.89399 | 36799 ft | 424 kts | 251° |
| 2026-05-05 13:28 | 49.51881 | 4.80597 | 36807 ft | 429 kts | 251° |
| 2026-05-05 13:29 | 49.50284 | 4.71743 | 36800 ft | 433 kts | 251° |
| 2026-05-05 13:29 | 49.48661 | 4.62793 | 36807 ft | 438 kts | 251° |
| 2026-05-05 13:30 | 49.47027 | 4.53832 | 36821 ft | 441 kts | 251° |
| 2026-05-05 13:30 | 49.45358 | 4.44742 | 36812 ft | 444 kts | 251° |
| 2026-05-05 13:31 | 49.43679 | 4.35630 | 36814 ft | 447 kts | 251° |
| 2026-05-05 13:31 | 49.41976 | 4.26408 | 36802 ft | 449 kts | 251° |
| 2026-05-05 13:32 | 49.40277 | 4.17253 | 36811 ft | 451 kts | 251° |
| 2026-05-05 13:32 | 49.38547 | 4.08011 | 36814 ft | 453 kts | 251° |
| 2026-05-05 13:33 | 49.36813 | 3.98742 | 36804 ft | 455 kts | 252° |
| 2026-05-05 13:33 | 49.35390 | 3.89284 | 36810 ft | 458 kts | 255° |
| 2026-05-05 13:34 | 49.34029 | 3.79720 | 36804 ft | 460 kts | 255° |
| 2026-05-05 13:34 | 49.32661 | 3.70185 | 36805 ft | 461 kts | 255° |
| 2026-05-05 13:35 | 49.31283 | 3.60662 | 36797 ft | 462 kts | 255° |
| 2026-05-05 13:35 | 49.29880 | 3.51032 | 36798 ft | 463 kts | 255° |
| 2026-05-05 13:36 | 49.28478 | 3.41481 | 36805 ft | 464 kts | 255° |
| 2026-05-05 13:36 | 49.27057 | 3.31851 | 36803 ft | 464 kts | 254° |
| 2026-05-05 13:37 | 49.25640 | 3.22279 | 36794 ft | 465 kts | 255° |
| 2026-05-05 13:37 | 49.24216 | 3.12725 | 36793 ft | 456 kts | 255° |
| 2026-05-05 13:38 | 49.22812 | 3.03386 | 36793 ft | 454 kts | 254° |
| 2026-05-05 13:38 | 49.21391 | 2.93996 | 36803 ft | 455 kts | 254° |
| 2026-05-05 13:39 | 49.19964 | 2.84615 | 36805 ft | 455 kts | 254° |
| 2026-05-05 13:39 | 49.18521 | 2.75203 | 36805 ft | 455 kts | 254° |
| 2026-05-05 13:40 | 49.17081 | 2.65860 | 36813 ft | 456 kts | 254° |
| 2026-05-05 13:40 | 49.15620 | 2.56433 | 36811 ft | 455 kts | 254° |
| 2026-05-05 13:41 | 49.14157 | 2.47061 | 36819 ft | 455 kts | 255° |
| 2026-05-05 13:41 | 49.12819 | 2.37674 | 36819 ft | 457 kts | 259° |
| 2026-05-05 13:42 | 49.11910 | 2.28081 | 36828 ft | 458 kts | 259° |
| 2026-05-05 13:42 | 49.11026 | 2.18499 | 36833 ft | 457 kts | 259° |
| 2026-05-05 13:43 | 49.09964 | 2.08953 | 36825 ft | 456 kts | 255° |
| 2026-05-05 13:43 | 49.08242 | 1.99781 | 36824 ft | 453 kts | 248° |
| 2026-05-05 13:44 | 49.05838 | 1.90944 | 36821 ft | 452 kts | 243° |
| 2026-05-05 13:44 | 49.03215 | 1.82283 | 36818 ft | 453 kts | 243° |
| 2026-05-05 13:45 | 49.00568 | 1.73558 | 36818 ft | 453 kts | 243° |
| 2026-05-05 13:45 | 48.97941 | 1.64913 | 36815 ft | 453 kts | 243° |
| 2026-05-05 13:46 | 48.95308 | 1.56271 | 36816 ft | 453 kts | 243° |
| 2026-05-05 13:46 | 48.92651 | 1.47573 | 36815 ft | 453 kts | 243° |
| 2026-05-05 13:47 | 48.90003 | 1.38935 | 36827 ft | 453 kts | 243° |
| 2026-05-05 13:47 | 48.87335 | 1.30335 | 36825 ft | 453 kts | 242° |
| 2026-05-05 13:48 | 48.84644 | 1.21650 | 36827 ft | 454 kts | 243° |
| 2026-05-05 13:48 | 48.81984 | 1.13066 | 36807 ft | 453 kts | 243° |
| 2026-05-05 13:49 | 48.79313 | 1.04471 | 36812 ft | 453 kts | 243° |
| 2026-05-05 13:49 | 48.76624 | 0.95848 | 36831 ft | 453 kts | 243° |
| 2026-05-05 13:50 | 48.73796 | 0.87360 | 36819 ft | 453 kts | 238° |
| 2026-05-05 13:50 | 48.70541 | 0.79227 | 36826 ft | 453 kts | 237° |
| 2026-05-05 13:51 | 48.67255 | 0.71132 | 36823 ft | 453 kts | 237° |
| 2026-05-05 13:51 | 48.63970 | 0.63057 | 36818 ft | 453 kts | 237° |
| 2026-05-05 13:52 | 48.60702 | 0.55043 | 36834 ft | 452 kts | 237° |
| 2026-05-05 13:52 | 48.57412 | 0.46996 | 36813 ft | 453 kts | 237° |
| 2026-05-05 13:53 | 48.54110 | 0.38945 | 36825 ft | 453 kts | 237° |
| 2026-05-05 13:53 | 48.50785 | 0.30852 | 36827 ft | 453 kts | 236° |
| 2026-05-05 13:54 | 48.47484 | 0.22820 | 36826 ft | 453 kts | 236° |
| 2026-05-05 13:54 | 48.44158 | 0.14779 | 36832 ft | 454 kts | 236° |
| 2026-05-05 13:55 | 48.40825 | 0.06748 | 36835 ft | 454 kts | 236° |
| 2026-05-05 13:55 | 48.37485 | -0.01269 | 36842 ft | 454 kts | 236° |
| 2026-05-05 13:56 | 48.33903 | -0.08997 | 36843 ft | 453 kts | 232° |
| 2026-05-05 13:56 | 48.30141 | -0.16586 | 36838 ft | 454 kts | 232° |
| 2026-05-05 13:57 | 48.26388 | -0.24141 | 36832 ft | 454 kts | 232° |
| 2026-05-05 13:57 | 48.22590 | -0.31658 | 36845 ft | 454 kts | 231° |
| 2026-05-05 13:58 | 48.18732 | -0.39198 | 36846 ft | 455 kts | 231° |
| 2026-05-05 13:58 | 48.14919 | -0.46635 | 36841 ft | 455 kts | 231° |
| 2026-05-05 13:59 | 48.09099 | -0.57961 | 36853 ft | 456 kts | 231° |
| 2026-05-05 14:00 | 48.03954 | -0.67941 | 36866 ft | 456 kts | 230° |
| 2026-05-05 14:00 | 47.99468 | -0.76645 | 36870 ft | 456 kts | 231° |
| 2026-05-05 14:01 | 47.95577 | -0.84154 | 36868 ft | 457 kts | 231° |
| 2026-05-05 14:01 | 47.91679 | -0.91650 | 36862 ft | 457 kts | 230° |
| 2026-05-05 14:02 | 47.87802 | -0.99055 | 36844 ft | 456 kts | 230° |
| 2026-05-05 14:02 | 47.83879 | -1.06499 | 36844 ft | 457 kts | 231° |
| 2026-05-05 14:03 | 47.79992 | -1.13882 | 36849 ft | 457 kts | 231° |
| 2026-05-05 14:03 | 47.76060 | -1.21347 | 36836 ft | 457 kts | 231° |
| 2026-05-05 14:04 | 47.72154 | -1.28751 | 36847 ft | 457 kts | 231° |
| 2026-05-05 14:04 | 47.68264 | -1.36100 | 36847 ft | 457 kts | 231° |
| 2026-05-05 14:05 | 47.64336 | -1.43502 | 36854 ft | 457 kts | 231° |
| 2026-05-05 14:05 | 47.60407 | -1.50862 | 36856 ft | 457 kts | 230° |
| 2026-05-05 14:06 | 47.56228 | -1.57889 | 36851 ft | 456 kts | 227° |
| 2026-05-05 14:06 | 47.51997 | -1.64854 | 36865 ft | 456 kts | 227° |
| 2026-05-05 14:07 | 47.47751 | -1.71849 | 36850 ft | 456 kts | 227° |
| 2026-05-05 14:07 | 47.43536 | -1.78765 | 36857 ft | 457 kts | 227° |
| 2026-05-05 14:08 | 47.39274 | -1.85681 | 36861 ft | 457 kts | 225° |
| 2026-05-05 14:08 | 47.34665 | -1.92044 | 36876 ft | 456 kts | 218° |
| 2026-05-05 14:09 | 47.29565 | -1.97613 | 36882 ft | 455 kts | 212° |
| 2026-05-05 14:09 | 47.24176 | -2.02471 | 36876 ft | 455 kts | 210° |
| 2026-05-05 14:10 | 47.18771 | -2.07285 | 36865 ft | 455 kts | 211° |
| 2026-05-05 14:10 | 47.13377 | -2.12087 | 36881 ft | 455 kts | 211° |
| 2026-05-05 14:11 | 47.07972 | -2.16892 | 36871 ft | 455 kts | 211° |
| 2026-05-05 14:11 | 47.02555 | -2.21692 | 36877 ft | 456 kts | 211° |
| 2026-05-05 14:12 | 46.97116 | -2.26499 | 36868 ft | 457 kts | 211° |
| 2026-05-05 14:12 | 46.91780 | -2.31448 | 36873 ft | 457 kts | 216° |
| 2026-05-05 14:13 | 46.86953 | -2.37484 | 36880 ft | 457 kts | 225° |
| 2026-05-05 14:13 | 46.82888 | -2.44529 | 36884 ft | 458 kts | 235° |
| 2026-05-05 14:14 | 46.79551 | -2.52448 | 36878 ft | 459 kts | 240° |
| 2026-05-05 14:14 | 46.76391 | -2.60506 | 36886 ft | 460 kts | 240° |
| 2026-05-05 14:15 | 46.73216 | -2.68557 | 36895 ft | 461 kts | 239° |
| 2026-05-05 14:15 | 46.70015 | -2.76646 | 36911 ft | 462 kts | 239° |
| 2026-05-05 14:16 | 46.66806 | -2.84705 | 36898 ft | 461 kts | 239° |
| 2026-05-05 14:16 | 46.63590 | -2.92748 | 36900 ft | 460 kts | 239° |
| 2026-05-05 14:17 | 46.60370 | -3.00768 | 36894 ft | 460 kts | 239° |
| 2026-05-05 14:17 | 46.56905 | -3.08446 | 36908 ft | 459 kts | 233° |
| 2026-05-05 14:18 | 46.52811 | -3.15588 | 36907 ft | 459 kts | 226° |
| 2026-05-05 14:18 | 46.48421 | -3.22194 | 36912 ft | 459 kts | 226° |
| 2026-05-05 14:19 | 46.43990 | -3.28840 | 36916 ft | 460 kts | 226° |
| 2026-05-05 14:19 | 46.39534 | -3.35517 | 36917 ft | 460 kts | 226° |
| 2026-05-05 14:20 | 46.35114 | -3.42124 | 36911 ft | 460 kts | 226° |
| 2026-05-05 14:20 | 46.30669 | -3.48753 | 36915 ft | 459 kts | 226° |
| 2026-05-05 14:21 | 46.26228 | -3.55360 | 36922 ft | 458 kts | 226° |
| 2026-05-05 14:21 | 46.21805 | -3.61923 | 36921 ft | 459 kts | 226° |
| 2026-05-05 14:22 | 46.17362 | -3.68513 | 36911 ft | 459 kts | 226° |
| 2026-05-05 14:22 | 46.12914 | -3.75112 | 36920 ft | 459 kts | 226° |
| 2026-05-05 14:23 | 46.08474 | -3.81669 | 36928 ft | 459 kts | 226° |
| 2026-05-05 14:23 | 46.04012 | -3.88233 | 36929 ft | 459 kts | 226° |
| 2026-05-05 14:24 | 45.99579 | -3.94735 | 36932 ft | 459 kts | 226° |
| 2026-05-05 14:24 | 45.95105 | -4.01279 | 36930 ft | 459 kts | 226° |
| 2026-05-05 14:25 | 45.90643 | -4.07787 | 36941 ft | 458 kts | 226° |
| 2026-05-05 14:25 | 45.86170 | -4.14268 | 36942 ft | 459 kts | 226° |
| 2026-05-05 14:26 | 45.81664 | -4.20774 | 36943 ft | 460 kts | 226° |
| 2026-05-05 14:26 | 45.77191 | -4.27238 | 36945 ft | 459 kts | 226° |
| 2026-05-05 14:27 | 45.72701 | -4.33721 | 36947 ft | 459 kts | 226° |
| 2026-05-05 14:27 | 45.68216 | -4.40186 | 36947 ft | 459 kts | 226° |
| 2026-05-05 14:28 | 45.63739 | -4.46626 | 36947 ft | 459 kts | 226° |
| 2026-05-05 14:28 | 45.59275 | -4.53030 | 36949 ft | 458 kts | 226° |
| 2026-05-05 14:29 | 45.54763 | -4.59488 | 36957 ft | 459 kts | 226° |
| 2026-05-05 14:29 | 45.50275 | -4.65904 | 36958 ft | 459 kts | 226° |
| 2026-05-05 14:30 | 45.45788 | -4.72323 | 36954 ft | 459 kts | 226° |
| 2026-05-05 14:30 | 45.41294 | -4.78724 | 36958 ft | 459 kts | 226° |
| 2026-05-05 14:31 | 45.36801 | -4.85098 | 36963 ft | 459 kts | 226° |
| 2026-05-05 14:31 | 45.32280 | -4.91498 | 36967 ft | 459 kts | 226° |
| 2026-05-05 14:32 | 45.27772 | -4.97862 | 36971 ft | 459 kts | 226° |
| 2026-05-05 14:32 | 45.23241 | -5.04240 | 36971 ft | 459 kts | 226° |